createdAt,value
2019-01-02T00:00:10.852Z,1.50
2019-01-02T00:02:40.036Z,1.40
2019-01-02T00:05:08.962Z,1.40
2019-01-02T00:07:37.965Z,1.40
2019-01-02T00:10:07.694Z,1.40
2019-01-02T00:12:36.604Z,1.30
2019-01-02T00:15:08.560Z,1.40
2019-01-02T00:17:37.539Z,1.50
2019-01-02T00:20:09.708Z,1.60
2019-01-02T00:22:38.665Z,1.70
2019-01-02T00:25:07.884Z,1.60
2019-01-02T00:27:36.887Z,1.70
2019-01-02T00:30:08.598Z,1.80
2019-01-02T00:32:37.502Z,1.80
2019-01-02T00:35:07.800Z,1.90
2019-01-02T00:37:37.004Z,1.90
2019-01-02T00:40:11.015Z,1.90
2019-01-02T00:42:40.262Z,1.90
2019-01-02T00:45:09.314Z,2.00
2019-01-02T00:47:38.494Z,2.10
2019-01-02T00:50:11.924Z,2.20
2019-01-02T00:52:40.842Z,2.10
2019-01-02T00:55:09.882Z,2.10
2019-01-02T00:57:39.150Z,2.10
2019-01-02T01:00:11.015Z,2.10
2019-01-02T01:02:40.278Z,2.10
2019-01-02T01:05:09.398Z,1.90
2019-01-02T01:07:38.714Z,1.10
2019-01-02T01:10:13.557Z,0.90
2019-01-02T01:12:42.806Z,0.80
2019-01-02T01:15:11.749Z,0.80
2019-01-02T01:17:41.094Z,0.90
2019-01-02T01:20:12.636Z,0.90
2019-01-02T01:22:41.517Z,0.90
2019-01-02T01:25:10.458Z,0.80
2019-01-02T01:27:39.362Z,0.90
2019-01-02T01:30:10.567Z,0.90
2019-01-02T01:32:39.463Z,0.90
2019-01-02T01:35:10.658Z,0.90
2019-01-02T01:37:42.024Z,1.00
2019-01-02T01:40:12.218Z,0.90
2019-01-02T01:42:41.160Z,1.00
2019-01-02T01:45:11.142Z,1.00
2019-01-02T01:47:40.001Z,0.90
2019-01-02T01:50:10.575Z,0.90
2019-01-02T01:52:39.469Z,0.90
2019-01-02T01:55:08.505Z,0.90
2019-01-02T01:57:37.824Z,1.00
2019-01-02T02:00:12.185Z,0.90
2019-01-02T02:02:41.072Z,0.90
2019-01-02T02:05:10.371Z,0.90
2019-01-02T02:07:39.282Z,0.90
2019-01-02T02:10:14.037Z,0.90
2019-01-02T02:12:42.958Z,0.90
2019-01-02T02:15:12.055Z,1.00
2019-01-02T02:17:41.350Z,1.10
2019-01-02T02:20:12.164Z,1.10
2019-01-02T02:22:41.106Z,1.10
2019-01-02T02:25:12.882Z,1.00
2019-01-02T02:27:41.811Z,1.10
2019-01-02T02:30:13.268Z,1.00
2019-01-02T02:32:42.800Z,1.10
2019-01-02T02:35:12.091Z,1.10
2019-01-02T02:37:41.071Z,1.20
2019-01-02T02:40:12.434Z,1.10
2019-01-02T02:42:41.350Z,1.10
2019-01-02T02:45:13.305Z,1.20
2019-01-02T02:47:42.535Z,1.20
2019-01-02T02:50:13.902Z,1.20
2019-01-02T02:52:42.761Z,1.30
2019-01-02T02:55:14.171Z,1.30
2019-01-02T02:57:43.090Z,1.30
2019-01-02T03:00:14.742Z,1.40
2019-01-02T03:02:43.708Z,1.40
2019-01-02T03:05:15.110Z,1.40
2019-01-02T03:07:44.707Z,1.40
2019-01-02T03:10:16.857Z,1.40
2019-01-02T03:12:46.030Z,1.40
2019-01-02T03:15:15.279Z,1.30
2019-01-02T03:17:44.182Z,1.50
2019-01-02T03:20:14.756Z,1.40
2019-01-02T03:22:44.718Z,1.40
2019-01-02T03:25:14.708Z,1.50
2019-01-02T03:27:44.051Z,1.50
2019-01-02T03:30:15.658Z,1.50
2019-01-02T03:32:44.886Z,1.40
2019-01-02T03:35:14.256Z,1.40
2019-01-02T03:37:43.118Z,1.30
2019-01-02T03:40:12.952Z,1.40
2019-01-02T03:42:41.827Z,1.40
2019-01-02T03:45:17.060Z,1.40
2019-01-02T03:47:46.081Z,1.40
2019-01-02T03:50:16.957Z,1.40
2019-01-02T03:52:45.883Z,1.40
2019-01-02T03:55:14.761Z,1.50
2019-01-02T03:57:43.673Z,1.40
2019-01-02T04:00:19.930Z,1.50
2019-01-02T04:02:48.850Z,1.60
2019-01-02T04:05:20.461Z,1.60
2019-01-02T04:07:52.684Z,1.60
2019-01-02T04:10:21.577Z,1.50
2019-01-02T04:12:50.489Z,1.60
2019-01-02T04:15:19.417Z,1.50
2019-01-02T04:17:48.334Z,1.50
2019-01-02T04:20:17.257Z,1.50
2019-01-02T04:22:46.138Z,1.50
2019-01-02T04:25:15.043Z,1.50
2019-01-02T04:27:43.963Z,1.50
2019-01-02T04:30:14.962Z,1.50
2019-01-02T04:32:43.863Z,1.50
2019-01-02T04:35:12.759Z,1.50
2019-01-02T04:37:41.638Z,1.40
2019-01-02T04:40:12.740Z,1.50
2019-01-02T04:42:42.022Z,1.40
2019-01-02T04:45:11.541Z,1.40
2019-01-02T04:47:40.641Z,1.40
2019-01-02T04:50:14.684Z,1.50
2019-01-02T04:52:43.585Z,1.50
2019-01-02T04:55:12.460Z,1.40
2019-01-02T04:57:41.512Z,1.40
2019-01-02T05:00:13.071Z,1.40
2019-01-02T05:02:41.994Z,1.40
2019-01-02T05:05:10.866Z,1.50
2019-01-02T05:07:39.738Z,1.50
2019-01-02T05:10:13.625Z,1.60
2019-01-02T05:12:42.461Z,1.50
2019-01-02T05:15:13.057Z,1.50
2019-01-02T05:17:42.050Z,1.50
2019-01-02T05:20:12.967Z,1.50
2019-01-02T05:22:41.881Z,1.60
2019-01-02T05:25:10.753Z,1.60
2019-01-02T05:27:39.677Z,1.50
2019-01-02T05:30:11.512Z,1.50
2019-01-02T05:32:40.360Z,1.50
2019-01-02T05:35:09.993Z,1.60
2019-01-02T05:37:38.915Z,1.40
2019-01-02T05:40:10.804Z,1.10
2019-01-02T05:42:39.705Z,1.20
2019-01-02T05:45:08.777Z,1.20
2019-01-02T05:47:37.704Z,1.20
2019-01-02T05:50:08.485Z,1.30
2019-01-02T05:52:37.396Z,1.40
2019-01-02T05:55:07.285Z,1.50
2019-01-02T05:57:36.140Z,1.50
2019-01-02T06:00:08.311Z,1.50
2019-01-02T06:02:37.190Z,1.60
2019-01-02T06:05:07.628Z,1.60
2019-01-02T06:07:36.489Z,1.50
2019-01-02T06:10:10.884Z,1.50
2019-01-02T06:12:39.789Z,1.50
2019-01-02T06:15:11.586Z,1.50
2019-01-02T06:17:40.511Z,1.50
2019-01-02T06:20:12.211Z,1.50
2019-01-02T06:22:41.914Z,1.50
2019-01-02T06:25:10.854Z,1.60
2019-01-02T06:27:39.722Z,1.50
2019-01-02T06:30:11.320Z,1.50
2019-01-02T06:32:40.344Z,1.50
2019-01-02T06:35:09.710Z,1.60
2019-01-02T06:37:38.680Z,1.50
2019-01-02T06:40:09.984Z,1.60
2019-01-02T06:42:38.866Z,1.60
2019-01-02T06:45:10.503Z,1.60
2019-01-02T06:47:39.373Z,1.60
2019-01-02T06:50:14.607Z,1.70
2019-01-02T06:52:43.485Z,1.70
2019-01-02T06:55:12.354Z,1.80
2019-01-02T06:57:41.271Z,1.70
2019-01-02T07:00:15.827Z,1.80
2019-01-02T07:02:44.751Z,1.80
2019-01-02T07:05:14.880Z,1.80
2019-01-02T07:07:44.019Z,1.70
2019-01-02T07:10:12.943Z,1.70
2019-01-02T07:12:44.095Z,1.70
2019-01-02T07:15:13.039Z,1.60
2019-01-02T07:17:41.914Z,1.60
2019-01-02T07:20:12.404Z,1.70
2019-01-02T07:22:41.323Z,1.60
2019-01-02T07:25:13.992Z,1.60
2019-01-02T07:27:42.877Z,1.60
2019-01-02T07:30:14.773Z,1.50
2019-01-02T07:32:43.667Z,1.50
2019-01-02T07:35:24.148Z,1.40
2019-01-02T07:38:10.582Z,1.40
2019-01-02T07:41:07.791Z,1.30
2019-01-02T07:43:45.473Z,1.30
2019-01-02T07:46:37.520Z,1.30
2019-01-02T07:49:24.328Z,1.40
2019-01-02T07:51:58.920Z,1.20
2019-01-02T07:54:51.940Z,1.30
2019-01-02T07:57:47.783Z,1.20
2019-01-02T08:00:22.310Z,1.20
2019-01-02T08:03:28.105Z,1.10
2019-01-02T08:06:03.903Z,1.10
2019-01-02T08:08:52.214Z,1.20
2019-01-02T08:11:27.069Z,1.30
2019-01-02T08:14:24.129Z,1.30
2019-01-02T08:17:07.536Z,1.30
2019-01-02T08:19:45.386Z,1.50
2019-01-02T08:22:31.858Z,1.60
2019-01-02T08:25:06.557Z,1.70
2019-01-02T08:28:08.720Z,1.90
2019-01-02T08:30:49.340Z,2.00
2019-01-02T08:33:33.458Z,2.10
2019-01-02T08:36:11.367Z,2.10
2019-01-02T08:38:49.229Z,2.20
2019-01-02T08:41:21.334Z,2.40
2019-01-02T08:44:04.887Z,2.40
2019-01-02T08:46:54.782Z,2.40
2019-01-02T08:49:38.207Z,2.40
2019-01-02T08:52:38.101Z,2.30
2019-01-02T08:55:36.653Z,2.40
2019-01-02T08:58:23.491Z,2.60
2019-01-02T09:00:58.037Z,2.80
2019-01-02T09:04:01.462Z,2.70
2019-01-02T09:06:42.217Z,2.60
2019-01-02T09:09:28.833Z,2.50
2019-01-02T09:12:29.070Z,2.60
2019-01-02T09:15:17.418Z,2.70
2019-01-02T09:18:04.369Z,2.40
2019-01-02T09:20:38.812Z,2.30
2019-01-02T09:23:25.338Z,2.40
2019-01-02T09:26:12.049Z,2.60
2019-01-02T09:28:43.909Z,2.70
2019-01-02T09:31:47.088Z,2.70
2019-01-02T09:34:27.633Z,2.80
2019-01-02T09:37:27.818Z,3.00
2019-01-02T09:40:05.198Z,2.80
2019-01-02T09:43:04.265Z,2.70
2019-01-02T09:45:52.309Z,2.50
2019-01-02T09:48:49.462Z,2.60
2019-01-02T09:51:53.998Z,2.60
2019-01-02T09:54:42.200Z,2.50
2019-01-02T09:57:25.802Z,3.00
2019-01-02T10:00:00.882Z,3.10
2019-01-02T10:02:35.387Z,3.10
2019-01-02T10:05:29.451Z,3.10
2019-01-02T10:08:01.306Z,3.30
2019-01-02T10:10:50.869Z,3.30
2019-01-02T10:13:34.502Z,3.30
2019-01-02T10:16:18.503Z,3.60
2019-01-02T10:18:50.335Z,3.80
2019-01-02T10:21:31.193Z,3.40
2019-01-02T10:24:15.364Z,3.40
2019-01-02T10:27:08.105Z,3.40
2019-01-02T10:29:54.770Z,3.20
2019-01-02T10:32:35.473Z,3.10
2019-01-02T10:35:25.082Z,3.00
2019-01-02T10:37:57.019Z,3.00
2019-01-02T10:40:55.721Z,2.90
2019-01-02T10:43:36.356Z,2.80
2019-01-02T10:46:14.284Z,2.80
2019-01-02T10:48:53.681Z,2.80
2019-01-02T10:51:54.010Z,2.70
2019-01-02T10:54:45.228Z,2.60
2019-01-02T10:57:26.068Z,2.60
2019-01-02T11:00:17.386Z,2.60
2019-01-02T11:02:49.244Z,2.30
2019-01-02T11:05:21.153Z,2.00
2019-01-02T11:07:55.746Z,1.90
2019-01-02T11:10:27.589Z,2.00
2019-01-02T11:13:18.863Z,1.80
2019-01-02T11:15:56.712Z,1.60
2019-01-02T11:18:28.692Z,1.40
2019-01-02T11:21:00.496Z,1.30
2019-01-02T11:23:47.363Z,1.30
2019-01-02T11:26:27.934Z,1.30
2019-01-02T11:29:11.769Z,1.20
2019-01-02T11:32:18.366Z,1.10
2019-01-02T11:35:11.071Z,1.10
2019-01-02T11:38:00.754Z,1.10
2019-01-02T11:40:44.260Z,1.20
2019-01-02T11:43:21.823Z,1.30
2019-01-02T11:45:50.782Z,1.80
2019-01-02T11:48:19.694Z,1.90
2019-01-02T11:50:48.637Z,2.20
2019-01-02T11:53:17.609Z,2.50
2019-01-02T11:55:46.515Z,2.90
2019-01-02T11:58:15.408Z,3.00
2019-01-02T12:00:44.461Z,3.10
2019-01-02T12:03:13.331Z,3.30
2019-01-02T12:05:42.357Z,3.60
2019-01-02T12:08:11.297Z,3.50
2019-01-02T12:10:40.310Z,3.60
2019-01-02T12:13:09.426Z,3.70
2019-01-02T12:15:38.321Z,4.10
2019-01-02T12:18:07.224Z,4.40
2019-01-02T12:20:36.183Z,4.40
2019-01-02T12:23:05.074Z,4.20
2019-01-02T12:25:33.976Z,2.60
2019-01-02T12:28:03.010Z,2.10
2019-01-02T12:30:32.210Z,1.90
2019-01-02T12:33:01.092Z,1.70
2019-01-02T12:35:30.107Z,1.70
2019-01-02T12:37:59.016Z,1.80
2019-01-02T12:40:27.879Z,2.30
2019-01-02T12:42:56.873Z,2.30
2019-01-02T12:45:25.807Z,2.60
2019-01-02T12:47:54.774Z,3.10
2019-01-02T12:50:23.778Z,3.50
2019-01-02T12:52:52.739Z,3.80
2019-01-02T12:55:21.653Z,4.30
2019-01-02T12:57:50.664Z,4.50
2019-01-02T13:00:19.551Z,4.40
2019-01-02T13:03:05.800Z,4.20
2019-01-02T13:05:43.266Z,4.30
2019-01-02T13:08:46.711Z,3.90
2019-01-02T13:11:21.564Z,4.00
2019-01-02T13:14:08.350Z,4.00
2019-01-02T13:16:46.029Z,4.40
2019-01-02T13:19:37.216Z,4.40
2019-01-02T13:22:26.803Z,4.20
2019-01-02T13:24:58.695Z,4.30
2019-01-02T13:27:33.682Z,4.50
2019-01-02T13:30:20.603Z,4.10
2019-01-02T13:32:52.452Z,3.70
2019-01-02T13:35:30.198Z,3.20
2019-01-02T13:38:10.766Z,3.00
2019-01-02T13:41:08.174Z,2.90
2019-01-02T13:43:49.005Z,2.50
2019-01-02T13:46:29.446Z,1.70
2019-01-02T13:49:18.931Z,1.20
2019-01-02T13:51:47.982Z,1.00
2019-01-02T13:54:16.884Z,0.90
2019-01-02T13:56:46.201Z,0.90
2019-01-02T13:59:15.291Z,0.90
2019-01-02T14:01:44.215Z,0.90
2019-01-02T14:04:13.207Z,0.90
2019-01-02T14:06:42.084Z,0.90
2019-01-02T14:09:11.041Z,1.10
2019-01-02T14:11:40.101Z,1.10
2019-01-02T14:14:09.001Z,1.10
2019-01-02T14:16:37.927Z,1.20
2019-01-02T14:19:06.844Z,1.20
2019-01-02T14:21:35.804Z,1.10
2019-01-02T14:24:04.725Z,1.00
2019-01-02T14:26:33.618Z,0.90
2019-01-02T14:29:03.468Z,1.00
2019-01-02T14:31:38.472Z,1.20
2019-01-02T14:34:03.022Z,1.60
2019-01-02T14:36:32.613Z,1.90
2019-01-02T14:39:01.640Z,1.80
2019-01-02T14:41:30.746Z,1.60
2019-01-02T14:43:59.641Z,1.50
2019-01-02T14:46:28.624Z,1.30
2019-01-02T14:48:57.553Z,1.30
2019-01-02T14:51:26.516Z,1.30
2019-01-02T14:53:55.541Z,1.30
2019-01-02T14:56:24.480Z,1.30
2019-01-02T14:58:53.433Z,1.30
2019-01-02T15:01:22.459Z,1.20
2019-01-02T15:03:51.389Z,1.20
2019-01-02T15:06:20.361Z,1.30
2019-01-02T15:08:49.300Z,1.20
2019-01-02T15:11:18.346Z,1.20
2019-01-02T15:13:47.408Z,1.20
2019-01-02T15:16:16.958Z,1.20
2019-01-02T15:18:45.913Z,1.10
2019-01-02T15:21:14.796Z,1.20
2019-01-02T15:23:43.803Z,1.30
2019-01-02T15:26:13.210Z,1.30
2019-01-02T15:28:42.247Z,1.20
2019-01-02T15:31:11.208Z,1.10
2019-01-02T15:33:41.277Z,1.00
2019-01-02T15:36:11.609Z,0.90
2019-01-02T15:38:41.661Z,0.90
2019-01-02T15:41:10.750Z,0.80
2019-01-02T15:43:39.869Z,0.70
2019-01-02T15:46:09.166Z,0.70
2019-01-02T15:48:38.084Z,0.60
2019-01-02T15:51:07.406Z,0.50
2019-01-02T15:53:37.820Z,0.60
2019-01-02T15:56:06.924Z,0.70
2019-01-02T15:58:36.165Z,0.60
2019-01-02T16:01:05.455Z,0.70
2019-01-02T16:03:34.511Z,0.80
2019-01-02T16:06:03.690Z,0.80
2019-01-02T16:08:32.655Z,0.80
2019-01-02T16:11:01.708Z,0.70
2019-01-02T16:13:30.656Z,0.70
2019-01-02T16:15:59.602Z,0.70
2019-01-02T16:18:28.707Z,0.70
2019-01-02T16:20:57.683Z,0.80
2019-01-02T16:23:26.776Z,0.80
2019-01-02T16:25:55.846Z,0.80
2019-01-02T16:28:24.836Z,0.60
2019-01-02T16:30:54.170Z,0.70
2019-01-02T16:33:23.199Z,0.70
2019-01-02T16:35:52.259Z,0.70
2019-01-02T16:38:21.368Z,0.70
2019-01-02T16:40:50.446Z,0.80
2019-01-02T16:43:19.556Z,0.60
2019-01-02T16:45:48.751Z,0.50
2019-01-02T16:48:17.772Z,0.40
2019-01-02T16:50:47.029Z,0.40
2019-01-02T16:53:16.228Z,0.40
2019-01-02T16:55:45.303Z,0.20
2019-01-02T16:58:14.520Z,0.30
2019-01-02T17:00:43.765Z,0.50
2019-01-02T17:03:12.789Z,0.50
2019-01-02T17:05:42.149Z,0.60
2019-01-02T17:08:11.343Z,0.60
2019-01-02T17:10:40.446Z,0.50
2019-01-02T17:13:09.647Z,0.40
2019-01-02T17:15:38.658Z,0.40
2019-01-02T17:18:07.675Z,0.40
2019-01-02T17:20:36.808Z,0.30
2019-01-02T17:23:05.861Z,0.30
2019-01-02T17:25:34.926Z,0.40
2019-01-02T17:28:04.174Z,0.40
2019-01-02T17:30:33.258Z,0.40
2019-01-02T17:33:02.458Z,0.30
2019-01-02T17:35:31.661Z,0.30
2019-01-02T17:38:00.826Z,0.20
2019-01-02T17:40:30.084Z,0.10
2019-01-02T17:42:59.991Z,0.10
2019-01-02T17:45:29.957Z,-0.10
2019-01-02T17:47:59.042Z,-0.20
2019-01-02T17:50:28.163Z,-0.20
2019-01-02T17:52:57.248Z,-0.30
2019-01-02T17:55:26.534Z,-0.30
2019-01-02T17:57:55.927Z,-0.20
2019-01-02T18:00:25.117Z,-0.20
2019-01-02T18:02:54.313Z,-0.10
2019-01-02T18:05:23.666Z,-0.10
2019-01-02T18:07:52.802Z,-0.10
2019-01-02T18:10:22.133Z,0.00
2019-01-02T18:12:51.360Z,0.00
2019-01-02T18:15:20.617Z,0.10
2019-01-02T18:17:49.835Z,0.10
2019-01-02T18:20:19.020Z,0.20
2019-01-02T18:22:48.131Z,0.30
2019-01-02T18:25:17.315Z,0.20
2019-01-02T18:27:46.405Z,0.20
2019-01-02T18:30:16.611Z,0.30
2019-01-02T18:32:45.812Z,0.30
2019-01-02T18:35:15.039Z,0.30
2019-01-02T18:37:45.700Z,0.40
2019-01-02T18:40:15.230Z,0.40
2019-01-02T18:42:44.716Z,0.30
2019-01-02T18:45:14.040Z,0.40
2019-01-02T18:47:44.297Z,0.50
2019-01-02T18:50:13.647Z,0.50
2019-01-02T18:52:42.777Z,0.60
2019-01-02T18:55:12.090Z,0.60
2019-01-02T18:57:41.571Z,0.50
2019-01-02T19:00:11.829Z,0.30
2019-01-02T19:02:41.138Z,0.30
2019-01-02T19:05:10.283Z,0.20
2019-01-02T19:07:39.500Z,0.30
2019-01-02T19:10:09.680Z,0.30
2019-01-02T19:12:38.879Z,0.40
2019-01-02T19:15:08.628Z,0.30
2019-01-02T19:17:37.932Z,0.40
2019-01-02T19:20:07.826Z,0.50
2019-01-02T19:22:37.138Z,0.60
2019-01-02T19:25:06.865Z,0.50
2019-01-02T19:27:36.658Z,0.60
2019-01-02T19:30:07.849Z,0.50
2019-01-02T19:32:37.040Z,0.40
2019-01-02T19:35:06.935Z,0.50
2019-01-02T19:37:36.262Z,0.50
2019-01-02T19:40:06.259Z,0.40
2019-01-02T19:42:35.512Z,0.40
2019-01-02T19:45:06.340Z,0.50
2019-01-02T19:47:36.966Z,0.50
2019-01-02T19:50:08.493Z,0.60
2019-01-02T19:52:37.682Z,0.50
2019-01-02T19:55:07.996Z,0.50
2019-01-02T19:57:38.484Z,0.30
2019-01-02T20:00:10.738Z,0.10
2019-01-02T20:02:40.071Z,0.40
2019-01-02T20:05:09.806Z,0.30
2019-01-02T20:07:39.009Z,0.30
2019-01-02T20:10:09.237Z,0.30
2019-01-02T20:12:38.664Z,0.40
2019-01-02T20:15:10.305Z,0.30
2019-01-02T20:17:39.525Z,0.30
2019-01-02T20:20:10.512Z,0.30
2019-01-02T20:22:39.713Z,0.30
2019-01-02T20:25:09.101Z,0.10
2019-01-02T20:27:38.449Z,0.10
2019-01-02T20:30:11.415Z,0.10
2019-01-02T20:32:40.969Z,0.00
2019-01-02T20:35:10.172Z,0.10
2019-01-02T20:37:39.270Z,0.10
2019-01-02T20:40:09.299Z,0.10
2019-01-02T20:42:38.453Z,0.00
2019-01-02T20:45:07.784Z,0.00
2019-01-02T20:47:36.995Z,0.00
2019-01-02T20:50:08.591Z,0.00
2019-01-02T20:52:37.728Z,0.00
2019-01-02T20:55:08.020Z,0.00
2019-01-02T20:57:37.103Z,0.00
2019-01-02T21:00:09.723Z,0.00
2019-01-02T21:02:38.929Z,0.00
2019-01-02T21:05:07.935Z,0.00
2019-01-02T21:07:37.113Z,-0.10
2019-01-02T21:10:07.737Z,0.00
2019-01-02T21:12:38.421Z,-0.10
2019-01-02T21:15:08.471Z,-0.10
2019-01-02T21:17:37.521Z,0.00
2019-01-02T21:20:08.342Z,0.00
2019-01-02T21:22:37.692Z,-0.10
2019-01-02T21:25:08.720Z,0.00
2019-01-02T21:27:37.896Z,0.00
2019-01-02T21:30:09.456Z,0.00
2019-01-02T21:32:38.693Z,0.00
2019-01-02T21:35:08.094Z,0.00
2019-01-02T21:37:37.185Z,-0.10
2019-01-02T21:40:10.491Z,-0.10
2019-01-02T21:42:39.584Z,-0.10
2019-01-02T21:45:09.101Z,-0.20
2019-01-02T21:47:37.994Z,-0.30
2019-01-02T21:50:08.388Z,-0.40
2019-01-02T21:52:37.480Z,-0.50
2019-01-02T21:55:07.442Z,-0.50
2019-01-02T21:57:36.705Z,-0.50
2019-01-02T22:00:09.639Z,-0.50
2019-01-02T22:02:40.391Z,-0.50
2019-01-02T22:05:09.512Z,-0.50
2019-01-02T22:07:38.495Z,-0.50
2019-01-02T22:10:09.149Z,-0.50
2019-01-02T22:12:38.288Z,-0.50
2019-01-02T22:15:10.059Z,-0.40
2019-01-02T22:17:40.409Z,-0.30
2019-01-02T22:20:09.726Z,-0.30
2019-01-02T22:22:38.772Z,-0.30
2019-01-02T22:25:07.980Z,-0.30
2019-01-02T22:27:36.965Z,-0.40
2019-01-02T22:30:07.878Z,-0.40
2019-01-02T22:32:36.810Z,-0.40
2019-01-02T22:35:06.278Z,-0.40
2019-01-02T22:37:35.165Z,-0.50
2019-01-02T22:40:05.623Z,-0.60
2019-01-02T22:42:34.500Z,-0.60
2019-01-02T22:45:03.423Z,-0.50
2019-01-02T22:47:32.346Z,-0.50
2019-01-02T22:50:01.262Z,-0.60
2019-01-02T22:52:30.483Z,-0.50
2019-01-02T22:54:59.440Z,-0.60
2019-01-02T22:57:29.299Z,-0.50
2019-01-02T22:59:58.259Z,-0.50
2019-01-02T23:02:28.722Z,-0.60
2019-01-02T23:04:59.251Z,-0.50
2019-01-02T23:07:29.709Z,-0.50
2019-01-02T23:10:11.741Z,-0.50
2019-01-02T23:12:42.187Z,-0.50
2019-01-02T23:15:15.494Z,-0.40
2019-01-02T23:17:57.822Z,-0.50
2019-01-02T23:20:28.327Z,-0.50
2019-01-02T23:22:58.819Z,-0.50
2019-01-02T23:25:45.287Z,-0.50
2019-01-02T23:28:15.746Z,-0.50
2019-01-02T23:30:52.184Z,-0.50
2019-01-02T23:33:25.456Z,-0.50
2019-01-02T23:36:01.680Z,-0.50
2019-01-02T23:38:48.147Z,-0.50
2019-01-02T23:41:34.763Z,-0.40
2019-01-02T23:44:23.530Z,-0.40
2019-01-02T23:46:54.056Z,-0.40
2019-01-02T23:49:40.246Z,-0.50
2019-01-02T23:52:28.725Z,-0.50
2019-01-02T23:55:10.828Z,-0.60
2019-01-02T23:57:59.500Z,-0.60
